createdAt,value
2023-01-28T00:00:50.583Z,8.50
2023-01-28T00:03:17.840Z,8.60
2023-01-28T00:05:45.180Z,9.20
2023-01-28T00:08:12.408Z,8.93
2023-01-28T00:10:39.867Z,8.90
2023-01-28T00:13:07.313Z,8.30
2023-01-28T00:15:36.277Z,8.93
2023-01-28T00:18:03.490Z,8.20
2023-01-28T00:20:30.713Z,9.10
2023-01-28T00:22:57.967Z,9.03
2023-01-28T00:25:25.241Z,10.00
2023-01-28T00:27:52.523Z,9.07
2023-01-28T00:30:19.951Z,8.93
2023-01-28T00:32:48.529Z,9.40
2023-01-28T00:35:16.383Z,8.10
2023-01-28T00:37:46.094Z,7.63
2023-01-28T00:40:13.732Z,8.57
2023-01-28T00:42:41.156Z,8.90
2023-01-28T00:45:08.954Z,9.03
2023-01-28T00:47:36.150Z,8.00
2023-01-28T00:50:05.109Z,8.43
2023-01-28T00:52:32.994Z,7.70
2023-01-28T00:55:00.614Z,7.83
2023-01-28T00:57:27.932Z,7.83
2023-01-28T00:59:55.467Z,8.27
2023-01-28T01:02:22.906Z,7.97
2023-01-28T01:04:50.136Z,8.07
2023-01-28T01:07:33.949Z,8.50
2023-01-28T01:10:06.720Z,3.73
2023-01-28T01:12:38.356Z,7.50
2023-01-28T01:15:09.062Z,8.20
2023-01-28T01:17:37.139Z,8.53
2023-01-28T01:20:09.672Z,8.17
2023-01-28T01:22:38.788Z,8.77
2023-01-28T01:25:06.428Z,8.93
2023-01-28T01:27:34.170Z,7.20
2023-01-28T01:30:01.607Z,8.10
2023-01-28T01:32:30.462Z,8.17
2023-01-28T01:34:58.038Z,8.27
2023-01-28T01:37:26.191Z,8.10
2023-01-28T01:39:55.296Z,8.47
2023-01-28T01:49:04.219Z,6.50
2023-01-28T01:51:34.232Z,6.50
2023-01-28T01:54:02.100Z,6.87
2023-01-28T01:56:39.931Z,6.03
2023-01-28T01:59:10.635Z,6.73
2023-01-28T02:01:38.152Z,7.53
2023-01-28T02:04:06.776Z,7.07
2023-01-28T02:06:35.381Z,6.67
2023-01-28T02:09:02.665Z,6.60
2023-01-28T02:14:22.456Z,7.30
2023-01-28T02:16:58.259Z,7.27
2023-01-28T02:19:28.437Z,6.03
2023-01-28T02:28:52.835Z,5.47
2023-01-28T02:31:22.247Z,6.03
2023-01-28T02:33:52.984Z,6.50
2023-01-28T02:36:25.026Z,6.97
2023-01-28T02:38:54.150Z,6.60
2023-01-28T02:41:41.135Z,5.93
2023-01-28T02:44:10.433Z,6.03
2023-01-28T02:46:38.632Z,4.57
2023-01-28T02:49:07.289Z,5.90
2023-01-28T02:55:25.807Z,5.50
2023-01-28T02:57:59.099Z,5.80
2023-01-28T03:00:30.268Z,5.37
2023-01-28T03:03:04.126Z,5.60
2023-01-28T03:05:34.776Z,5.50
2023-01-28T03:08:02.576Z,5.77
2023-01-28T03:13:28.912Z,5.43
2023-01-28T03:15:57.776Z,4.73
2023-01-28T03:18:27.789Z,5.40
2023-01-28T03:20:57.803Z,5.87
2023-01-28T03:23:29.570Z,4.30
2023-01-28T03:26:18.868Z,5.43
2023-01-28T03:29:34.646Z,5.30
2023-01-28T03:32:25.852Z,5.10
2023-01-28T03:34:53.641Z,5.10
2023-01-28T03:37:20.992Z,5.17
2023-01-28T03:39:51.879Z,4.77
2023-01-28T03:42:19.647Z,4.50
2023-01-28T03:44:55.471Z,5.17
2023-01-28T03:47:24.594Z,4.83
2023-01-28T03:49:54.089Z,4.80
2023-01-28T03:52:23.452Z,4.93
2023-01-28T03:54:50.982Z,4.27
2023-01-28T03:57:37.558Z,4.50
2023-01-28T04:00:20.544Z,4.73
2023-01-28T04:02:47.874Z,4.83
2023-01-28T04:05:18.727Z,4.90
2023-01-28T04:07:49.880Z,4.87
2023-01-28T04:10:21.159Z,4.87
2023-01-28T04:12:52.336Z,4.23
2023-01-28T04:18:02.579Z,4.63
2023-01-28T04:20:32.219Z,5.60
2023-01-28T04:23:01.032Z,4.30
2023-01-28T04:26:04.669Z,5.40
2023-01-28T04:32:09.391Z,4.67
2023-01-28T04:35:03.113Z,4.60
2023-01-28T04:37:52.049Z,4.43
2023-01-28T04:40:30.876Z,4.87
2023-01-28T04:43:11.623Z,5.00
2023-01-28T04:45:51.234Z,5.20
2023-01-28T04:48:36.765Z,4.53
2023-01-28T04:51:24.351Z,4.70
2023-01-28T04:54:11.620Z,5.30
2023-01-28T04:56:38.946Z,4.70
2023-01-28T04:59:06.227Z,5.50
2023-01-28T05:01:43.949Z,4.27
2023-01-28T05:04:11.828Z,4.83
2023-01-28T05:06:39.814Z,4.90
2023-01-28T05:09:20.929Z,4.83
2023-01-28T05:12:02.499Z,4.60
2023-01-28T05:14:53.296Z,4.43
2023-01-28T05:17:22.039Z,4.93
2023-01-28T05:19:49.487Z,4.63
2023-01-28T05:22:21.213Z,4.60
2023-01-28T05:25:05.427Z,5.23
2023-01-28T05:27:33.033Z,4.13
2023-01-28T05:32:42.961Z,4.47
2023-01-28T05:35:10.829Z,4.77
2023-01-28T05:37:38.587Z,4.93
2023-01-28T05:40:08.170Z,4.97
2023-01-28T05:42:35.440Z,4.27
2023-01-28T05:48:55.661Z,4.93
2023-01-28T05:51:41.664Z,4.57
2023-01-28T05:54:10.538Z,4.43
2023-01-28T05:56:39.186Z,4.90
2023-01-28T05:59:07.555Z,4.60
2023-01-28T06:01:35.887Z,4.87
2023-01-28T06:06:52.965Z,4.67
2023-01-28T06:09:20.655Z,4.70
2023-01-28T06:11:49.667Z,4.57
2023-01-28T06:21:02.722Z,4.77
2023-01-28T06:23:30.023Z,4.07
2023-01-28T06:25:57.741Z,4.73
2023-01-28T06:28:27.003Z,5.30
2023-01-28T06:30:54.341Z,4.37
2023-01-28T06:35:57.606Z,4.80
2023-01-28T06:38:25.321Z,5.30
2023-01-28T06:40:52.691Z,4.90
2023-01-28T06:43:19.917Z,5.20
2023-01-28T06:45:48.499Z,5.03
2023-01-28T06:48:15.697Z,6.27
2023-01-28T06:50:58.612Z,5.40
2023-01-28T06:53:25.968Z,4.97
2023-01-28T06:55:53.234Z,5.60
2023-01-28T06:58:20.629Z,5.73
2023-01-28T07:00:49.330Z,6.23
2023-01-28T07:03:16.682Z,5.53
2023-01-28T07:05:43.924Z,5.50
2023-01-28T07:08:11.419Z,6.27
2023-01-28T07:10:38.654Z,6.33
2023-01-28T07:13:05.871Z,6.03
2023-01-28T07:15:33.392Z,6.00
2023-01-28T07:18:02.226Z,6.50
2023-01-28T07:20:30.349Z,6.13
2023-01-28T07:25:47.778Z,5.87
2023-01-28T07:28:15.042Z,5.27
2023-01-28T07:30:42.377Z,5.90
2023-01-28T07:33:11.177Z,5.80
2023-01-28T07:35:38.384Z,5.70
2023-01-28T07:45:16.890Z,5.57
2023-01-28T07:47:44.134Z,5.67
2023-01-28T07:50:13.295Z,5.83
2023-01-28T07:52:40.895Z,6.20
2023-01-28T07:55:08.774Z,5.47
2023-01-28T07:57:36.023Z,5.17
2023-01-28T08:00:03.295Z,5.33
2023-01-28T08:02:39.358Z,5.97
2023-01-28T08:05:07.416Z,5.30
2023-01-28T08:07:36.039Z,5.53
2023-01-28T08:10:03.289Z,6.33
2023-01-28T08:12:52.190Z,5.77
2023-01-28T08:15:19.706Z,6.03
2023-01-28T08:17:47.109Z,5.63
2023-01-28T08:20:14.913Z,5.43
2023-01-28T08:23:13.736Z,6.33
2023-01-28T08:29:23.892Z,6.60
2023-01-28T08:31:51.167Z,5.77
2023-01-28T08:34:18.610Z,6.00
2023-01-28T08:36:45.862Z,6.13
2023-01-28T08:39:13.220Z,6.37
2023-01-28T08:41:40.456Z,5.83
2023-01-28T08:44:07.875Z,6.80
2023-01-28T08:46:36.507Z,6.30
2023-01-28T08:49:03.816Z,6.87
2023-01-28T08:51:31.062Z,6.40
2023-01-28T08:54:17.212Z,6.93
2023-01-28T08:56:59.900Z,6.60
2023-01-28T08:59:27.190Z,6.90
2023-01-28T09:01:55.867Z,7.23
2023-01-28T09:04:23.105Z,6.53
2023-01-28T09:06:50.392Z,6.27
2023-01-28T09:09:17.725Z,6.30
2023-01-28T09:11:45.041Z,6.00
2023-01-28T09:14:12.346Z,7.27
2023-01-28T09:16:39.596Z,6.40
2023-01-28T09:19:08.172Z,6.23
2023-01-28T09:21:35.416Z,6.93
2023-01-28T09:24:02.653Z,6.57
2023-01-28T09:26:29.910Z,6.30
2023-01-28T09:28:57.146Z,5.40
2023-01-28T09:31:24.564Z,5.93
2023-01-28T09:33:52.044Z,4.97
2023-01-28T09:36:20.962Z,5.00
2023-01-28T09:38:48.287Z,6.20
2023-01-28T09:41:23.044Z,5.70
2023-01-28T09:43:54.768Z,6.53
2023-01-28T09:46:22.702Z,6.40
2023-01-28T09:48:51.579Z,6.27
2023-01-28T09:51:27.555Z,7.10
2023-01-28T09:53:56.144Z,6.17
2023-01-28T09:56:25.899Z,6.60
2023-01-28T09:58:53.101Z,7.03
2023-01-28T10:01:34.717Z,6.63
2023-01-28T10:04:05.034Z,7.33
2023-01-28T10:06:42.092Z,6.60
2023-01-28T10:09:20.115Z,6.30
2023-01-28T10:11:53.371Z,6.50
2023-01-28T10:14:26.263Z,6.67
2023-01-28T10:16:56.230Z,5.87
2023-01-28T10:19:26.481Z,5.17
2023-01-28T10:21:56.716Z,5.97
2023-01-28T10:24:26.444Z,6.67
2023-01-28T10:26:53.984Z,5.30
2023-01-28T10:29:23.964Z,5.47
2023-01-28T10:31:55.149Z,5.17
2023-01-28T10:34:22.951Z,5.50
2023-01-28T10:36:50.776Z,4.87
2023-01-28T10:39:21.906Z,4.83
2023-01-28T10:42:11.492Z,4.70
2023-01-28T10:44:41.730Z,5.83
2023-01-28T10:47:13.289Z,4.90
2023-01-28T10:49:42.915Z,5.47
2023-01-28T10:59:00.906Z,5.50
2023-01-28T11:01:39.397Z,5.73
2023-01-28T11:04:07.003Z,5.30
2023-01-28T11:06:34.236Z,5.40
2023-01-28T11:09:01.679Z,5.10
2023-01-28T11:11:50.884Z,6.57
2023-01-28T11:14:23.603Z,7.33
2023-01-28T11:16:51.356Z,7.43
2023-01-28T11:19:23.007Z,7.57
2023-01-28T11:22:27.394Z,7.20
2023-01-28T11:28:29.885Z,7.80
2023-01-28T11:30:59.575Z,7.40
2023-01-28T11:33:30.504Z,7.10
2023-01-28T11:35:58.548Z,6.80
2023-01-28T11:38:26.806Z,6.60
2023-01-28T11:41:06.284Z,6.60
2023-01-28T11:43:33.611Z,6.77
2023-01-28T11:46:09.775Z,6.67
2023-01-28T11:48:40.250Z,6.70
2023-01-28T11:51:30.522Z,6.20
2023-01-28T11:54:35.431Z,7.03
2023-01-28T11:57:18.464Z,6.23
2023-01-28T11:59:57.346Z,5.87
2023-01-28T12:02:36.500Z,7.03
2023-01-28T12:05:09.461Z,6.63
2023-01-28T12:07:41.578Z,7.03
2023-01-28T12:10:21.112Z,6.87
2023-01-28T12:12:52.817Z,6.53
2023-01-28T12:15:29.806Z,6.70
2023-01-28T12:18:04.769Z,6.43
2023-01-28T12:20:47.039Z,5.57
2023-01-28T12:26:32.852Z,6.93
2023-01-28T12:29:07.471Z,7.10
2023-01-28T12:31:40.491Z,7.00
2023-01-28T12:34:24.175Z,6.53
2023-01-28T12:36:55.149Z,7.47
2023-01-28T12:39:28.212Z,7.43
2023-01-28T12:44:48.413Z,6.60
2023-01-28T12:47:18.179Z,7.63
2023-01-28T12:49:49.556Z,6.00
2023-01-28T12:52:19.012Z,6.67
2023-01-28T12:55:07.146Z,7.03
2023-01-28T12:58:00.053Z,6.50
2023-01-28T13:00:46.100Z,6.87
2023-01-28T13:03:17.821Z,7.47
2023-01-28T13:05:49.014Z,6.33
2023-01-28T13:08:18.501Z,4.43
2023-01-28T13:10:47.179Z,6.53
2023-01-28T13:13:17.483Z,7.10
2023-01-28T13:16:04.102Z,5.83
2023-01-28T13:18:32.925Z,6.73
2023-01-28T13:21:01.907Z,5.93
2023-01-28T13:23:37.553Z,6.33
2023-01-28T13:26:29.211Z,5.83
2023-01-28T13:29:08.288Z,5.93
2023-01-28T13:31:38.174Z,6.10
2023-01-28T13:34:06.246Z,6.93
2023-01-28T13:36:38.103Z,6.13
2023-01-28T13:39:06.882Z,5.97
2023-01-28T13:41:41.450Z,6.77
2023-01-28T13:44:18.573Z,5.57
2023-01-28T13:46:46.164Z,6.37
2023-01-28T13:49:14.999Z,6.23
2023-01-28T13:51:51.883Z,6.23
2023-01-28T13:54:21.826Z,6.23
2023-01-28T13:56:56.417Z,5.47
2023-01-28T13:59:43.865Z,6.20
2023-01-28T14:02:21.606Z,5.97
2023-01-28T14:05:02.309Z,7.00
2023-01-28T14:07:50.778Z,5.80
2023-01-28T14:10:26.010Z,6.43
2023-01-28T14:13:05.776Z,6.37
2023-01-28T14:15:47.563Z,6.37
2023-01-28T14:18:19.281Z,6.87
2023-01-28T14:20:46.791Z,6.00
2023-01-28T14:23:19.706Z,6.30
2023-01-28T14:26:09.628Z,6.33
2023-01-28T14:28:47.747Z,6.53
2023-01-28T14:31:17.841Z,7.13
2023-01-28T14:33:45.317Z,6.23
2023-01-28T14:36:12.612Z,5.50
2023-01-28T14:38:42.981Z,5.50
2023-01-28T14:41:10.996Z,5.87
2023-01-28T14:46:27.019Z,5.17
2023-01-28T14:49:00.246Z,6.40
2023-01-28T14:51:36.490Z,6.20
2023-01-28T14:54:40.697Z,6.23
2023-01-28T15:00:55.708Z,6.20
2023-01-28T15:03:25.167Z,4.70
2023-01-28T15:06:02.561Z,5.10
2023-01-28T15:08:29.877Z,3.47
2023-01-28T15:10:59.288Z,4.00
2023-01-28T15:16:13.558Z,4.00
2023-01-28T15:18:42.280Z,3.80
2023-01-28T15:21:09.838Z,4.03
2023-01-28T15:23:50.329Z,3.63
2023-01-28T15:29:55.009Z,4.30
2023-01-28T15:32:23.867Z,3.70
2023-01-28T15:34:51.114Z,3.73
2023-01-28T15:37:19.001Z,3.30
2023-01-28T15:39:46.242Z,2.90
2023-01-28T15:42:20.032Z,3.40
2023-01-28T15:44:47.658Z,2.90
2023-01-28T15:47:17.806Z,2.50
2023-01-28T15:49:46.379Z,3.50
2023-01-28T15:52:13.852Z,2.60
2023-01-28T15:54:42.854Z,2.53
2023-01-28T15:57:30.239Z,3.00
2023-01-28T16:00:04.950Z,3.00
2023-01-28T16:02:45.479Z,2.93
2023-01-28T16:05:31.515Z,3.00
2023-01-28T16:07:58.994Z,3.10
2023-01-28T16:10:27.793Z,3.10
2023-01-28T16:13:04.669Z,2.80
2023-01-28T16:15:32.060Z,3.10
2023-01-28T16:18:01.082Z,2.67
2023-01-28T16:20:29.357Z,3.23
2023-01-28T16:23:03.385Z,2.97
2023-01-28T16:25:49.562Z,2.90
2023-01-28T16:28:19.588Z,3.57
2023-01-28T16:30:46.949Z,3.27
2023-01-28T16:33:20.630Z,2.87
2023-01-28T16:36:05.375Z,3.63
2023-01-28T16:38:35.370Z,3.43
2023-01-28T16:41:02.644Z,3.23
2023-01-28T16:43:29.867Z,3.67
2023-01-28T16:45:57.031Z,3.47
2023-01-28T16:48:25.653Z,3.23
2023-01-28T16:50:52.861Z,3.03
2023-01-28T16:53:21.779Z,3.10
2023-01-28T16:55:50.551Z,3.13
2023-01-28T16:58:19.834Z,2.97
2023-01-28T17:00:47.293Z,3.10
2023-01-28T17:03:14.511Z,2.70
2023-01-28T17:05:43.084Z,3.10
2023-01-28T17:08:10.499Z,3.03
2023-01-28T17:10:38.003Z,3.37
2023-01-28T17:13:05.259Z,2.70
2023-01-28T17:15:32.502Z,3.03
2023-01-28T17:17:59.718Z,2.67
2023-01-28T17:20:27.029Z,3.03
2023-01-28T17:22:55.619Z,2.90
2023-01-28T17:25:22.856Z,2.70
2023-01-28T17:28:10.072Z,4.23
2023-01-28T17:31:02.432Z,3.37
2023-01-28T17:33:29.771Z,3.40
2023-01-28T17:35:57.819Z,2.80
2023-01-28T17:38:26.466Z,3.70
2023-01-28T17:40:53.831Z,4.00
2023-01-28T17:43:21.076Z,4.07
2023-01-28T17:45:48.346Z,3.63
2023-01-28T17:48:15.600Z,3.33
2023-01-28T17:50:42.857Z,3.50
2023-01-28T17:53:10.931Z,3.10
2023-01-28T17:55:39.547Z,3.67
2023-01-28T17:58:06.994Z,3.30
2023-01-28T18:00:34.331Z,2.97
2023-01-28T18:03:01.594Z,3.07
2023-01-28T18:05:28.798Z,3.70
2023-01-28T18:07:56.046Z,3.30
2023-01-28T18:10:23.386Z,3.73
2023-01-28T18:12:51.992Z,3.90
2023-01-28T18:15:19.284Z,3.40
2023-01-28T18:17:46.577Z,3.80
2023-01-28T18:20:13.940Z,3.30
2023-01-28T18:22:41.244Z,4.23
2023-01-28T18:25:08.747Z,4.03
2023-01-28T18:27:36.002Z,3.70
2023-01-28T18:30:04.925Z,3.90
2023-01-28T18:32:33.047Z,3.37
2023-01-28T18:35:00.282Z,3.60
2023-01-28T18:37:27.498Z,3.50
2023-01-28T18:39:54.766Z,3.50
2023-01-28T18:42:22.186Z,4.07
2023-01-28T18:44:49.376Z,5.03
2023-01-28T18:47:17.973Z,5.10
2023-01-28T18:49:45.189Z,4.10
2023-01-28T18:52:12.464Z,4.00
2023-01-28T18:54:39.714Z,5.10
2023-01-28T18:57:07.381Z,4.47
2023-01-28T18:59:34.686Z,4.30
2023-01-28T19:02:01.991Z,4.67
2023-01-28T19:04:30.783Z,3.70
2023-01-28T19:06:58.137Z,4.33
2023-01-28T19:09:25.406Z,4.00
2023-01-28T19:11:52.623Z,4.63
2023-01-28T19:14:19.880Z,3.80
2023-01-28T19:16:47.162Z,4.53
2023-01-28T19:19:14.407Z,3.93
2023-01-28T19:21:43.031Z,4.27
2023-01-28T19:24:12.316Z,4.10
2023-01-28T19:26:39.612Z,3.33
2023-01-28T19:29:07.438Z,3.70
2023-01-28T19:31:34.712Z,4.20
2023-01-28T19:34:02.158Z,3.50
2023-01-28T19:36:30.292Z,3.60
2023-01-28T19:38:59.368Z,4.00
2023-01-28T19:41:26.753Z,3.77
2023-01-28T19:43:54.248Z,3.43
2023-01-28T19:46:21.506Z,4.10
2023-01-28T19:48:48.762Z,3.93
2023-01-28T19:51:16.413Z,3.60
2023-01-28T19:53:44.051Z,4.40
2023-01-28T19:56:13.397Z,4.13
2023-01-28T19:58:41.887Z,3.40
2023-01-28T20:01:09.987Z,4.33
2023-01-28T20:03:37.639Z,3.93
2023-01-28T20:06:06.148Z,3.70
2023-01-28T20:08:33.797Z,4.50
2023-01-28T20:11:04.655Z,4.30
2023-01-28T20:13:33.679Z,5.00
2023-01-28T20:16:04.929Z,4.63
2023-01-28T20:18:32.249Z,4.90
2023-01-28T20:20:59.451Z,4.57
2023-01-28T20:23:26.768Z,4.73
2023-01-28T20:25:54.655Z,5.50
2023-01-28T20:28:22.335Z,4.93
2023-01-28T20:30:54.449Z,5.50
2023-01-28T20:33:21.831Z,4.67
2023-01-28T20:35:49.143Z,5.57
2023-01-28T20:38:16.484Z,4.53
2023-01-28T20:40:44.027Z,5.27
2023-01-28T20:43:11.364Z,5.40
2023-01-28T20:45:38.599Z,6.27
2023-01-28T20:48:07.753Z,6.30
2023-01-28T20:50:35.196Z,6.33
2023-01-28T20:53:02.477Z,5.67
2023-01-28T20:55:29.751Z,6.17
2023-01-28T20:57:56.973Z,6.10
2023-01-28T21:00:24.440Z,6.60
2023-01-28T21:02:51.803Z,6.40
2023-01-28T21:05:20.443Z,7.03
2023-01-28T21:07:47.711Z,6.30
2023-01-28T21:10:15.302Z,8.20
2023-01-28T21:12:42.658Z,6.03
2023-01-28T21:15:10.260Z,7.00
2023-01-28T21:17:37.482Z,6.77
2023-01-28T21:20:05.139Z,6.57
2023-01-28T21:22:33.685Z,6.80
2023-01-28T21:25:02.102Z,6.03
2023-01-28T21:27:30.294Z,6.17
2023-01-28T21:29:57.552Z,6.93
2023-01-28T21:32:27.373Z,7.03
2023-01-28T21:34:54.832Z,6.67
2023-01-28T21:37:22.083Z,7.10
2023-01-28T21:39:50.646Z,6.73
2023-01-28T21:42:17.850Z,7.00
2023-01-28T21:44:45.142Z,7.27
2023-01-28T21:47:12.399Z,7.17
2023-01-28T21:49:39.620Z,8.67
2023-01-28T21:52:06.891Z,7.40
2023-01-28T21:54:34.586Z,7.77
2023-01-28T21:57:03.166Z,7.70
2023-01-28T21:59:30.504Z,7.47
2023-01-28T22:01:58.915Z,7.63
2023-01-28T22:04:26.891Z,8.20
2023-01-28T22:06:55.143Z,8.40
2023-01-28T22:09:22.833Z,7.77
2023-01-28T22:11:50.095Z,8.23
2023-01-28T22:14:19.301Z,9.23
2023-01-28T22:16:46.881Z,9.17
2023-01-28T22:19:14.983Z,9.53
2023-01-28T22:21:43.396Z,9.37
2023-01-28T22:24:12.042Z,9.03
2023-01-28T22:26:39.361Z,9.23
2023-01-28T22:29:06.611Z,8.53
2023-01-28T22:31:35.400Z,8.17
2023-01-28T22:34:03.019Z,8.37
2023-01-28T22:36:30.446Z,9.10
2023-01-28T22:38:57.643Z,8.60
2023-01-28T22:41:25.167Z,8.13
2023-01-28T22:43:52.873Z,8.73
2023-01-28T22:46:20.430Z,8.30
2023-01-28T22:48:49.332Z,8.87
2023-01-28T22:51:17.483Z,8.73
2023-01-28T22:53:44.899Z,8.83
2023-01-28T22:56:12.628Z,7.77
2023-01-28T22:58:40.183Z,8.87
2023-01-28T23:01:07.717Z,8.37
2023-01-28T23:03:35.251Z,8.43
2023-01-28T23:06:04.877Z,9.63
2023-01-28T23:08:32.837Z,7.33
2023-01-28T23:11:01.807Z,9.10
2023-01-28T23:13:29.781Z,8.50
2023-01-28T23:15:57.045Z,8.73
2023-01-28T23:18:24.661Z,9.03
2023-01-28T23:20:51.949Z,7.37
2023-01-28T23:23:20.502Z,8.37
2023-01-28T23:25:47.769Z,8.83
2023-01-28T23:28:15.241Z,8.37
2023-01-28T23:30:42.681Z,8.10
2023-01-28T23:33:19.243Z,7.83
2023-01-28T23:36:17.585Z,8.30
2023-01-28T23:38:46.278Z,7.50
2023-01-28T23:41:13.550Z,8.27
2023-01-28T23:43:40.828Z,8.33
2023-01-28T23:46:08.091Z,7.77
2023-01-28T23:48:35.298Z,7.77
2023-01-28T23:51:02.507Z,8.23
2023-01-28T23:53:29.857Z,7.87
2023-01-28T23:55:58.792Z,7.60
2023-01-28T23:58:42.205Z,6.83
